createdAt,value
2023-05-14T00:00:43.011Z,101000.19
2023-05-14T00:03:45.624Z,100989.88
2023-05-14T00:06:48.102Z,100994.28
2023-05-14T00:09:50.490Z,100974.84
2023-05-14T00:12:52.953Z,100991.56
2023-05-14T00:15:55.628Z,100994.81
2023-05-14T00:18:58.119Z,100990.78
2023-05-14T00:22:00.674Z,100979.78
2023-05-14T00:25:03.288Z,100979.53
2023-05-14T00:28:05.925Z,101005.13
2023-05-14T00:31:08.522Z,100976.34
2023-05-14T00:34:11.060Z,100969.59
2023-05-14T00:37:13.504Z,100945.13
2023-05-14T00:40:16.024Z,101002.03
2023-05-14T00:43:20.175Z,100960.09
2023-05-14T00:46:22.818Z,100961.47
2023-05-14T00:49:26.900Z,100993.78
2023-05-14T00:52:29.712Z,100966.41
2023-05-14T00:55:32.328Z,100983.72
2023-05-14T00:58:34.739Z,100986.56
2023-05-14T01:01:37.671Z,100986.63
2023-05-14T01:04:40.373Z,100981.09
2023-05-14T01:08:00.964Z,101001.25
2023-05-14T01:11:03.624Z,100998.50
2023-05-14T01:14:27.277Z,100954.81
2023-05-14T01:17:33.055Z,100951.56
2023-05-14T01:20:36.071Z,100946.09
2023-05-14T01:23:38.484Z,100963.06
2023-05-14T01:26:41.035Z,100925.72
2023-05-14T01:29:55.593Z,100928.97
2023-05-14T01:33:00.580Z,100922.63
2023-05-14T01:36:04.046Z,100901.03
2023-05-14T01:39:09.687Z,100931.88
2023-05-14T01:42:12.288Z,100910.59
2023-05-14T01:45:14.823Z,100917.38
2023-05-14T01:48:17.325Z,100932.75
2023-05-14T01:51:19.798Z,100924.94
2023-05-14T01:54:22.562Z,100903.31
2023-05-14T01:57:26.095Z,100908.56
2023-05-14T02:00:28.576Z,100894.69
2023-05-14T02:03:31.259Z,100863.94
2023-05-14T02:06:34.001Z,100890.81
2023-05-14T02:09:36.453Z,100904.97
2023-05-14T02:12:38.870Z,100890.91
2023-05-14T02:15:41.457Z,100866.13
2023-05-14T02:18:43.915Z,100864.19
2023-05-14T02:21:47.248Z,100877.63
2023-05-14T02:24:51.465Z,100874.81
2023-05-14T02:27:53.998Z,100869.72
2023-05-14T02:31:01.290Z,100884.66
2023-05-14T02:34:04.986Z,100883.09
2023-05-14T02:37:07.453Z,100865.00
2023-05-14T02:40:11.345Z,100855.50
2023-05-14T02:43:13.920Z,100869.47
2023-05-14T02:46:16.359Z,100861.28
2023-05-14T02:49:18.776Z,100864.44
2023-05-14T02:52:21.207Z,100850.66
2023-05-14T02:55:26.484Z,100886.22
2023-05-14T02:58:28.935Z,100855.84
2023-05-14T03:01:31.613Z,100854.97
2023-05-14T03:04:34.393Z,100848.63
2023-05-14T03:07:36.886Z,100844.78
2023-05-14T03:10:39.254Z,100835.63
2023-05-14T03:13:41.670Z,100851.88
2023-05-14T03:16:44.099Z,100838.97
2023-05-14T03:19:47.612Z,100839.75
2023-05-14T03:22:50.069Z,100827.13
2023-05-14T03:25:52.714Z,100829.56
2023-05-14T03:28:55.120Z,100840.03
2023-05-14T03:31:57.592Z,100861.03
2023-05-14T03:35:00.060Z,100844.50
2023-05-14T03:38:02.512Z,100847.22
2023-05-14T03:41:05.255Z,100844.50
2023-05-14T03:44:07.673Z,100846.53
2023-05-14T03:47:10.444Z,100835.72
2023-05-14T03:50:12.917Z,100838.63
2023-05-14T03:53:15.379Z,100844.84
2023-05-14T03:56:17.864Z,100822.38
2023-05-14T03:59:20.320Z,100851.97
2023-05-14T04:02:22.732Z,100856.53
2023-05-14T04:05:25.434Z,100859.59
2023-05-14T04:08:27.937Z,100865.94
2023-05-14T04:11:32.112Z,100856.78
2023-05-14T04:14:35.484Z,100856.88
2023-05-14T04:17:38.920Z,100837.56
2023-05-14T04:20:41.346Z,100838.25
2023-05-14T04:23:43.757Z,100861.09
2023-05-14T04:26:46.175Z,100858.72
2023-05-14T04:29:49.715Z,100844.22
2023-05-14T04:32:52.283Z,100862.97
2023-05-14T04:35:54.705Z,100834.22
2023-05-14T04:38:57.199Z,100847.75
2023-05-14T04:41:59.588Z,100829.19
2023-05-14T04:45:02.097Z,100844.47
2023-05-14T04:48:05.048Z,100826.31
2023-05-14T04:51:07.671Z,100839.66
2023-05-14T04:54:10.145Z,100832.91
2023-05-14T04:57:12.531Z,100830.34
2023-05-14T05:00:15.877Z,100857.41
2023-05-14T05:03:18.476Z,100864.25
2023-05-14T05:06:21.207Z,100868.28
2023-05-14T05:09:23.693Z,100834.28
2023-05-14T05:12:26.204Z,100796.09
2023-05-14T05:15:28.620Z,100826.97
2023-05-14T05:18:31.057Z,100814.34
2023-05-14T05:21:33.602Z,100812.84
2023-05-14T05:24:36.047Z,100827.56
2023-05-14T05:27:38.906Z,100786.94
2023-05-14T05:30:41.316Z,100803.16
2023-05-14T05:33:44.025Z,100823.78
2023-05-14T05:36:46.488Z,100813.78
2023-05-14T05:39:49.535Z,100842.75
2023-05-14T05:42:51.925Z,100812.91
2023-05-14T05:45:54.660Z,100818.44
2023-05-14T05:48:57.072Z,100818.19
2023-05-14T05:51:59.505Z,100814.75
2023-05-14T05:55:02.016Z,100829.22
2023-05-14T05:58:04.697Z,100819.41
2023-05-14T06:01:07.076Z,100809.59
2023-05-14T06:04:10.181Z,100810.38
2023-05-14T06:07:13.079Z,100804.75
2023-05-14T06:10:15.638Z,100803.16
2023-05-14T06:13:18.159Z,100838.38
2023-05-14T06:16:21.085Z,100835.56
2023-05-14T06:19:23.539Z,100810.28
2023-05-14T06:22:25.920Z,100829.66
2023-05-14T06:25:28.522Z,100825.72
2023-05-14T06:28:30.915Z,100833.53
2023-05-14T06:31:33.298Z,100828.38
2023-05-14T06:34:35.842Z,100842.66
2023-05-14T06:37:38.403Z,100822.13
2023-05-14T06:40:40.985Z,100811.66
2023-05-14T06:43:43.451Z,100816.75
2023-05-14T06:46:45.887Z,100781.66
2023-05-14T06:49:48.369Z,100804.16
2023-05-14T06:52:50.784Z,100804.56
2023-05-14T06:55:53.257Z,100804.28
2023-05-14T06:58:55.690Z,100800.81
2023-05-14T07:01:58.170Z,100811.72
2023-05-14T07:05:00.911Z,100772.47
2023-05-14T07:08:03.423Z,100770.53
2023-05-14T07:11:05.853Z,100788.06
2023-05-14T07:14:08.295Z,100811.31
2023-05-14T07:17:11.298Z,100780.25
2023-05-14T07:20:13.778Z,100805.59
2023-05-14T07:23:18.501Z,100789.44
2023-05-14T07:26:24.588Z,100775.72
2023-05-14T07:29:27.055Z,100756.94
2023-05-14T07:32:29.485Z,100776.66
2023-05-14T07:35:31.980Z,100787.34
2023-05-14T07:38:34.448Z,100769.00
2023-05-14T07:41:36.888Z,100786.50
2023-05-14T07:44:39.462Z,100755.34
2023-05-14T07:47:42.140Z,100757.44
2023-05-14T07:50:45.454Z,100770.28
2023-05-14T07:53:47.879Z,100758.22
2023-05-14T07:56:50.360Z,100752.75
2023-05-14T07:59:52.908Z,100768.47
2023-05-14T08:02:56.115Z,100746.22
2023-05-14T08:05:58.680Z,100743.56
2023-05-14T08:09:01.074Z,100734.25
2023-05-14T08:12:03.830Z,100748.44
2023-05-14T08:15:07.900Z,100727.28
2023-05-14T08:18:10.351Z,100731.94
2023-05-14T08:21:12.792Z,100721.81
2023-05-14T08:24:15.169Z,100742.38
2023-05-14T08:27:17.565Z,100716.84
2023-05-14T08:30:20.858Z,100714.50
2023-05-14T08:33:23.470Z,100723.94
2023-05-14T08:36:25.884Z,100692.91
2023-05-14T08:39:28.388Z,100702.38
2023-05-14T08:42:31.419Z,100702.13
2023-05-14T08:45:35.174Z,100675.81
2023-05-14T08:48:40.927Z,100697.16
2023-05-14T08:51:47.117Z,100698.78
2023-05-14T08:54:51.297Z,100694.50
2023-05-14T08:57:53.836Z,100685.94
2023-05-14T09:00:56.328Z,100693.88
2023-05-14T09:03:58.831Z,100692.78
2023-05-14T09:07:02.843Z,100673.88
2023-05-14T09:10:05.891Z,100688.84
2023-05-14T09:13:10.270Z,100663.19
2023-05-14T09:16:12.795Z,100676.19
2023-05-14T09:19:16.004Z,100686.72
2023-05-14T09:22:19.167Z,100691.34
2023-05-14T09:25:27.059Z,100671.88
2023-05-14T09:28:30.730Z,100667.09
2023-05-14T09:31:33.911Z,100675.88
2023-05-14T09:34:38.103Z,100684.50
2023-05-14T09:37:48.805Z,100636.94
2023-05-14T09:40:51.224Z,100643.75
2023-05-14T09:43:53.956Z,100633.06
2023-05-14T09:46:56.851Z,100622.09
2023-05-14T09:49:59.353Z,100636.34
2023-05-14T09:53:01.975Z,100642.22
2023-05-14T09:56:04.656Z,100642.66
2023-05-14T09:59:07.045Z,100653.63
2023-05-14T10:02:23.233Z,100645.00
2023-05-14T10:05:26.927Z,100621.84
2023-05-14T10:08:34.264Z,100649.84
2023-05-14T10:11:38.246Z,100613.38
2023-05-14T10:14:41.609Z,100643.25
2023-05-14T10:17:49.413Z,100605.19
2023-05-14T10:21:04.501Z,100580.75
2023-05-14T10:24:08.519Z,100588.28
2023-05-14T10:27:10.932Z,100566.44
2023-05-14T10:30:13.717Z,100552.75
2023-05-14T10:33:18.465Z,100600.00
2023-05-14T10:36:20.937Z,100566.13
2023-05-14T10:39:24.196Z,100580.72
2023-05-14T10:42:33.460Z,100590.66
2023-05-14T10:45:36.405Z,100556.00
2023-05-14T10:48:43.725Z,100573.66
2023-05-14T10:51:49.562Z,100580.63
2023-05-14T10:54:57.017Z,100555.13
2023-05-14T10:58:01.418Z,100545.03
2023-05-14T11:01:06.145Z,100545.84
2023-05-14T11:04:09.336Z,100519.06
2023-05-14T11:07:12.500Z,100570.25
2023-05-14T11:10:19.957Z,100592.19
2023-05-14T11:13:22.450Z,100560.00
2023-05-14T11:16:29.295Z,100528.47
2023-05-14T11:19:31.708Z,100556.00
2023-05-14T11:22:35.130Z,100580.06
2023-05-14T11:25:37.839Z,100578.47
2023-05-14T11:28:40.537Z,100530.09
2023-05-14T11:31:43.119Z,100541.94
2023-05-14T11:34:46.238Z,100527.06
2023-05-14T11:37:52.671Z,100536.81
2023-05-14T11:40:59.514Z,100550.09
2023-05-14T11:44:02.009Z,100524.09
2023-05-14T11:47:05.245Z,100536.03
2023-05-14T11:50:09.404Z,100543.09
2023-05-14T11:53:12.280Z,100525.41
2023-05-14T11:56:14.766Z,100514.50
2023-05-14T11:59:18.554Z,100493.25
2023-05-14T12:02:21.202Z,100512.94
2023-05-14T12:05:23.767Z,100512.56
2023-05-14T12:08:30.427Z,100512.25
2023-05-14T12:11:33.045Z,100508.69
2023-05-14T12:14:38.400Z,100459.53
2023-05-14T12:17:41.466Z,100528.41
2023-05-14T12:20:52.178Z,100482.03
2023-05-14T12:24:01.089Z,100517.88
2023-05-14T12:27:03.766Z,100493.78
2023-05-14T12:30:20.558Z,100467.50
2023-05-14T12:33:24.087Z,100486.34
2023-05-14T12:36:26.540Z,100476.22
2023-05-14T12:39:30.372Z,100504.53
2023-05-14T12:42:33.180Z,100464.06
2023-05-14T12:45:35.691Z,100458.13
2023-05-14T12:48:38.131Z,100482.47
2023-05-14T12:51:41.105Z,100472.69
2023-05-14T12:54:43.799Z,100471.88
2023-05-14T12:57:46.218Z,100449.09
2023-05-14T13:00:48.779Z,100447.63
2023-05-14T13:03:51.277Z,100428.91
2023-05-14T13:06:53.722Z,100443.03
2023-05-14T13:09:56.553Z,100415.19
2023-05-14T13:12:59.267Z,100423.03
2023-05-14T13:16:01.693Z,100427.81
2023-05-14T13:19:04.133Z,100430.13
2023-05-14T13:22:06.588Z,100410.16
2023-05-14T13:25:09.483Z,100398.78
2023-05-14T13:28:11.955Z,100418.91
2023-05-14T13:31:14.991Z,100400.03
2023-05-14T13:34:17.499Z,100370.19
2023-05-14T13:37:20.416Z,100395.00
2023-05-14T13:40:22.913Z,100361.66
2023-05-14T13:43:25.328Z,100371.50
2023-05-14T13:46:27.839Z,100380.09
2023-05-14T13:49:30.375Z,100358.25
2023-05-14T13:52:32.865Z,100367.66
2023-05-14T13:55:35.416Z,100361.00
2023-05-14T13:58:37.816Z,100350.00
2023-05-14T14:01:40.517Z,100333.25
2023-05-14T14:04:43.044Z,100341.16
2023-05-14T14:07:46.990Z,100353.25
2023-05-14T14:10:50.094Z,100339.09
2023-05-14T14:13:53.095Z,100344.66
2023-05-14T14:16:55.612Z,100347.69
2023-05-14T14:19:57.998Z,100356.34
2023-05-14T14:23:00.512Z,100336.75
2023-05-14T14:26:02.972Z,100346.13
2023-05-14T14:29:05.443Z,100345.81
2023-05-14T14:32:08.008Z,100344.97
2023-05-14T14:35:11.947Z,100337.91
2023-05-14T14:38:14.660Z,100339.47
2023-05-14T14:41:17.161Z,100321.81
2023-05-14T14:44:19.686Z,100369.34
2023-05-14T14:47:22.211Z,100320.25
2023-05-14T14:50:24.580Z,100332.44
2023-05-14T14:53:27.161Z,100327.72
2023-05-14T14:56:29.586Z,100314.00
2023-05-14T14:59:32.026Z,100317.16
2023-05-14T15:02:34.871Z,100316.72
2023-05-14T15:05:37.703Z,100321.41
2023-05-14T15:08:40.419Z,100305.81
2023-05-14T15:11:42.862Z,100299.94
2023-05-14T15:14:45.292Z,100283.50
2023-05-14T15:17:47.909Z,100303.94
2023-05-14T15:20:50.787Z,100307.44
2023-05-14T15:23:53.219Z,100288.31
2023-05-14T15:26:55.697Z,100306.75
2023-05-14T15:29:58.112Z,100310.78
2023-05-14T15:33:00.718Z,100268.03
2023-05-14T15:36:03.296Z,100274.69
2023-05-14T15:39:05.957Z,100264.38
2023-05-14T15:42:08.438Z,100277.78
2023-05-14T15:45:12.543Z,100269.16
2023-05-14T15:48:15.092Z,100279.81
2023-05-14T15:51:17.555Z,100271.53
2023-05-14T15:54:20.072Z,100240.94
2023-05-14T15:57:22.597Z,100242.44
2023-05-14T16:00:25.382Z,100280.94
2023-05-14T16:03:28.138Z,100278.63
2023-05-14T16:06:31.144Z,100268.84
2023-05-14T16:09:33.660Z,100233.94
2023-05-14T16:12:36.212Z,100239.50
2023-05-14T16:15:39.956Z,100213.25
2023-05-14T16:18:43.310Z,100221.53
2023-05-14T16:21:45.768Z,100218.91
2023-05-14T16:24:48.241Z,100216.53
2023-05-14T16:27:50.791Z,100206.25
2023-05-14T16:30:53.307Z,100222.31
2023-05-14T16:33:55.926Z,100217.56
2023-05-14T16:36:59.656Z,100218.81
2023-05-14T16:40:02.227Z,100234.84
2023-05-14T16:43:04.752Z,100246.22
2023-05-14T16:46:07.218Z,100217.97
2023-05-14T16:49:09.832Z,100219.44
2023-05-14T16:52:12.302Z,100232.47
2023-05-14T16:55:14.885Z,100218.44
2023-05-14T16:58:17.359Z,100190.22
2023-05-14T17:01:19.992Z,100189.41
2023-05-14T17:04:24.978Z,100171.44
2023-05-14T17:07:27.579Z,100190.00
2023-05-14T17:10:30.991Z,100204.97
2023-05-14T17:13:34.086Z,100176.69
2023-05-14T17:16:38.792Z,100170.47
2023-05-14T17:19:41.462Z,100199.53
2023-05-14T17:22:44.047Z,100179.09
2023-05-14T17:25:46.409Z,100143.41
2023-05-14T17:28:48.879Z,100170.41
2023-05-14T17:31:51.346Z,100148.53
2023-05-14T17:34:53.872Z,100173.22
2023-05-14T17:37:57.576Z,100150.44
2023-05-14T17:41:02.083Z,100146.97
2023-05-14T17:44:04.761Z,100183.47
2023-05-14T17:47:08.409Z,100152.91
2023-05-14T17:50:12.214Z,100120.75
2023-05-14T17:53:14.852Z,100145.03
2023-05-14T17:56:18.586Z,100141.94
2023-05-14T17:59:22.942Z,100169.06
2023-05-14T18:02:26.610Z,100133.38
2023-05-14T18:05:31.645Z,100134.53
2023-05-14T18:08:34.122Z,100138.88
2023-05-14T18:11:36.848Z,100144.41
2023-05-14T18:14:39.322Z,100131.81
2023-05-14T18:17:43.722Z,100116.97
2023-05-14T18:20:46.151Z,100106.06
2023-05-14T18:23:49.243Z,100126.03
2023-05-14T18:26:51.780Z,100136.16
2023-05-14T18:29:54.489Z,100122.50
2023-05-14T18:32:57.135Z,100138.09
2023-05-14T18:35:59.759Z,100133.44
2023-05-14T18:39:02.294Z,100121.28
2023-05-14T18:42:06.209Z,100129.94
2023-05-14T18:45:09.070Z,100119.81
2023-05-14T18:48:11.533Z,100124.84
2023-05-14T18:51:14.020Z,100104.78
2023-05-14T18:54:16.603Z,100112.34
2023-05-14T18:57:19.057Z,100109.63
2023-05-14T19:00:21.536Z,100104.88
2023-05-14T19:03:24.151Z,100122.91
2023-05-14T19:06:26.765Z,100136.63
2023-05-14T19:09:29.324Z,100140.19
2023-05-14T19:12:31.963Z,100099.41
2023-05-14T19:15:34.472Z,100094.66
2023-05-14T19:18:37.001Z,100113.94
2023-05-14T19:21:39.494Z,100092.41
2023-05-14T19:24:42.137Z,100086.13
2023-05-14T19:27:45.584Z,100107.34
2023-05-14T19:30:48.145Z,100094.78
2023-05-14T19:33:51.133Z,100099.91
2023-05-14T19:36:53.782Z,100090.50
2023-05-14T19:39:56.197Z,100116.84
2023-05-14T19:42:58.664Z,100088.97
2023-05-14T19:46:01.658Z,100074.44
2023-05-14T19:49:04.298Z,100085.06
2023-05-14T19:52:06.818Z,100076.88
2023-05-14T19:55:09.457Z,100099.63
2023-05-14T19:58:12.182Z,100072.59
2023-05-14T20:01:15.216Z,100053.44
2023-05-14T20:04:17.954Z,100074.94
2023-05-14T20:07:20.548Z,100073.00
2023-05-14T20:10:23.708Z,100080.94
2023-05-14T20:13:26.571Z,100065.69
2023-05-14T20:16:29.094Z,100046.50
2023-05-14T20:19:31.749Z,100039.91
2023-05-14T20:22:34.224Z,100041.09
2023-05-14T20:25:36.707Z,100043.09
2023-05-14T20:28:39.316Z,100024.22
2023-05-14T20:31:41.860Z,100045.47
2023-05-14T20:34:44.311Z,100027.03
2023-05-14T20:37:47.334Z,100009.75
2023-05-14T20:40:49.852Z,100036.44
2023-05-14T20:43:52.321Z,100030.66
2023-05-14T20:46:54.809Z,100019.66
2023-05-14T20:49:57.278Z,100024.38
2023-05-14T20:52:59.729Z,100030.63
2023-05-14T20:56:02.234Z,100027.44
2023-05-14T20:59:04.625Z,99998.44
2023-05-14T21:02:07.219Z,100016.50
2023-05-14T21:05:09.739Z,100041.59
2023-05-14T21:08:12.173Z,100031.41
2023-05-14T21:11:14.600Z,100024.34
2023-05-14T21:14:17.035Z,100002.13
2023-05-14T21:17:19.555Z,100023.72
2023-05-14T21:20:22.049Z,99978.66
2023-05-14T21:23:24.708Z,100001.03
2023-05-14T21:26:30.728Z,99997.91
2023-05-14T21:29:33.137Z,99983.44
2023-05-14T21:32:35.598Z,99976.81
2023-05-14T21:35:38.088Z,99990.50
2023-05-14T21:38:40.845Z,99979.13
2023-05-14T21:41:43.291Z,99959.22
2023-05-14T21:44:45.684Z,99951.78
2023-05-14T21:47:48.151Z,99966.69
2023-05-14T21:50:50.700Z,99972.19
2023-05-14T21:53:53.200Z,99953.16
2023-05-14T21:56:55.671Z,99926.19
2023-05-14T21:59:58.333Z,99932.88
2023-05-14T22:03:00.847Z,99921.97
2023-05-14T22:06:03.529Z,99917.31
2023-05-14T22:09:05.995Z,99930.25
2023-05-14T22:12:08.620Z,99906.31
2023-05-14T22:15:11.891Z,99940.47
2023-05-14T22:18:15.637Z,99918.09
2023-05-14T22:21:18.077Z,99931.03
2023-05-14T22:24:20.983Z,99886.44
2023-05-14T22:27:23.376Z,99947.84
2023-05-14T22:30:25.793Z,99927.50
2023-05-14T22:33:28.254Z,99913.00
2023-05-14T22:36:30.687Z,99925.44
2023-05-14T22:39:33.069Z,99924.66
2023-05-14T22:42:35.490Z,99923.16
2023-05-14T22:45:37.983Z,99922.38
2023-05-14T22:48:40.391Z,99915.72
2023-05-14T22:51:42.799Z,99918.47
2023-05-14T22:54:46.674Z,99923.25
2023-05-14T22:57:49.101Z,99883.34
2023-05-14T23:00:51.488Z,99884.13
2023-05-14T23:03:53.859Z,99902.91
2023-05-14T23:06:56.291Z,99893.19
2023-05-14T23:09:58.679Z,99893.56
2023-05-14T23:13:01.311Z,99876.78
2023-05-14T23:16:04.131Z,99874.00
2023-05-14T23:19:06.843Z,99935.38
2023-05-14T23:22:09.457Z,99904.41
2023-05-14T23:25:11.936Z,99907.59
2023-05-14T23:28:14.368Z,99893.94
2023-05-14T23:31:16.763Z,99902.50
2023-05-14T23:34:19.197Z,99892.78
2023-05-14T23:37:21.716Z,99883.50
2023-05-14T23:40:24.111Z,99880.41
2023-05-14T23:43:26.545Z,99871.81
2023-05-14T23:46:29.214Z,99850.69
2023-05-14T23:49:31.795Z,99845.25
2023-05-14T23:52:34.292Z,99852.31
2023-05-14T23:55:36.777Z,99844.16
2023-05-14T23:58:39.259Z,99819.19
